Clements, CA (95227)

11:39 PM PDT on September 26, 2016 (GMT -0700)
Texas West | | Change Station

Elev 282 ft 38.18 °N, 121.01 °W | Updated 14 seconds ago

Clear
Clear
78.4 °F
Feels Like 78 °F
N
5.1
Wind Variable Wind from ESE
Gusts 7.4 mph

Today
High -- | Low -- °F
--% Chance of Precip.
Yesterday
High -- | Low -- °F
Precip. -- in
Pressure 29.91 in
Visibility 10.0 miles
Clouds Clear
Heat Index 78 °F
Dew Point 33 °F
Humidity 19%
Rainfall in
Snow Depth Not available.
6:56 AM 6:54 PM
Waning Crescent, 13% visible
METAR KSCK 270555Z 29003KT 10SM CLR 23/09 A2991 RMK AO2 SLP127 T02280089 10372 20222 51007
Pressure 29.91 in
Visibility 10.0 miles
Clouds Clear
Heat Index 78 °F
Dew Point 33 °F
Humidity 19%
Rainfall in
Snow Depth Not available.
6:56 AM 6:54 PM
Waning Crescent, 13% visible
METAR KSCK 270555Z 29003KT 10SM CLR 23/09 A2991 RMK AO2 SLP127 T02280089 10372 20222 51007

10-Day Weather Forecast

Almanac

Astronomy

Sep. 26, 2016 Rise Set
Actual Time
Civil Twilight
Nautical Twilight
Astronomical Twilight
Moon
Length of Visible Light
Length of Day
Tomorrow will be .
, % of the Moon is Illuminated

Today's Extremes

State Highs State Lows

Community

WunderPhotos

Upload Photos

1,942,040 photos uploaded!

WunderBlog® & News

Nearby

Air Quality

  Air Quality AQ Index Pollutant
Not available.

Snow Depth

Station Depth Elevation

Earthquake Activity

City Distance Mag. Time & Date
Minimum magnitude displayed is 2.5.

Coastal Water Temperatures

Place Temperature

Stations

Nearby Weather Stations

Station Location Temp. Windchill Dew Point Humidity Wind Precip. Elev Updated Type
                   

Watches & Warnings

There are currently no watches in effect.